Time;durP1;ratioP1;P1;durP2;ratioP2;P2;SDS_P1;SDS_P2;PMS_P1;PMS_P2;Temp;Humidity;BMP_temperature;BMP_pressure;BME280_temperature;BME280_humidity;BME280_pressure;Samples;Min_cycle;Max_cycle;Signal;HPM_P1;HPM_P2
2023/04/22 00:00:08;;;;;;;0.90;0.80;;;;;;;13.52;72.07;100900.82;106670;1277;25433;-55
2023/04/22 00:02:38;;;;;;;1.20;1.10;;;;;;;13.55;72.17;100900.94;106768;1273;22607;-55
2023/04/22 00:05:07;;;;;;;1.30;1.20;;;;;;;13.57;72.22;100905.39;106718;1272;22545;-55
2023/04/22 00:07:36;;;;;;;1.20;1.10;;;;;;;13.60;72.17;100905.80;106834;1269;22733;-55
2023/04/22 00:10:07;;;;;;;1.70;1.40;;;;;;;13.62;72.10;100909.60;106864;1269;25345;-55
2023/04/22 00:12:35;;;;;;;2.80;2.30;;;;;;;13.64;72.08;100909.34;106851;1270;22522;-55
2023/04/22 00:15:04;;;;;;;4.80;3.40;;;;;;;13.63;71.90;100912.68;106860;1269;25391;-55
2023/04/22 00:17:33;;;;;;;5.70;3.60;;;;;;;13.59;71.87;100912.46;106931;1273;22625;-55
2023/04/22 00:20:02;;;;;;;4.90;3.00;;;;;;;13.56;71.97;100915.71;107045;1270;25358;-55
2023/04/22 00:22:32;;;;;;;6.40;3.50;;;;;;;13.55;72.09;100919.92;106829;1269;24222;-55
2023/04/22 00:25:00;;;;;;;5.20;3.30;;;;;;;13.54;72.14;100923.10;106897;1270;23137;-55
2023/04/22 00:27:29;;;;;;;3.20;2.80;;;;;;;13.53;72.22;100924.16;106809;1270;25345;-55
2023/04/22 00:29:57;;;;;;;4.30;2.90;;;;;;;13.50;72.19;100924.42;106878;1268;22644;-55
2023/04/22 00:32:26;;;;;;;3.60;3.20;;;;;;;13.49;72.31;100929.35;106869;1270;22652;-55
2023/04/22 00:34:56;;;;;;;3.80;3.00;;;;;;;13.48;72.33;100931.29;106939;1270;22651;-55
2023/04/22 00:37:24;;;;;;;6.60;3.20;;;;;;;13.48;72.38;100934.77;106993;1268;25358;-55
2023/04/22 00:39:53;;;;;;;4.80;3.40;;;;;;;13.49;72.28;100936.32;106940;1269;25338;-55
2023/04/22 00:42:22;;;;;;;4.30;3.20;;;;;;;13.49;72.31;100937.17;106874;1268;25426;-55
2023/04/22 00:44:50;;;;;;;4.80;3.70;;;;;;;13.49;72.29;100936.49;106833;1268;25382;-55
2023/04/22 00:47:19;;;;;;;5.90;3.50;;;;;;;13.47;72.14;100937.05;106770;1270;25397;-54
2023/04/22 00:49:47;;;;;;;5.40;3.20;;;;;;;13.46;72.07;100941.81;106704;1272;25328;-55
2023/04/22 00:52:16;;;;;;;4.20;2.70;;;;;;;13.43;71.93;100944.69;106539;1273;25356;-55
2023/04/22 00:54:45;;;;;;;5.50;3.70;;;;;;;13.40;71.80;100948.27;106830;1270;22531;-55
2023/04/22 00:57:14;;;;;;;8.00;3.20;;;;;;;13.37;71.66;100948.86;106767;1270;23897;-55
2023/04/22 00:59:43;;;;;;;6.30;3.40;;;;;;;13.34;71.71;100954.21;106780;1269;22531;-55
2023/04/22 01:02:11;;;;;;;6.10;3.80;;;;;;;13.32;71.62;100951.66;106752;1271;25439;-55
2023/04/22 01:04:40;;;;;;;6.30;3.80;;;;;;;13.29;71.53;100952.95;106821;1270;25364;-55
2023/04/22 01:07:09;;;;;;;4.50;3.20;;;;;;;13.30;71.63;100952.58;106892;1270;25342;-54
2023/04/22 01:09:38;;;;;;;6.50;3.60;;;;;;;13.29;71.65;100954.54;106775;1270;25373;-54
2023/04/22 01:12:07;;;;;;;5.60;3.40;;;;;;;13.28;71.55;100952.28;106765;1269;22571;-54
2023/04/22 01:14:36;;;;;;;4.10;2.80;;;;;;;13.28;71.63;100954.36;106733;1270;26728;-54
2023/04/22 01:17:05;;;;;;;5.00;3.50;;;;;;;13.29;71.62;100962.20;106845;1270;25528;-54
2023/04/22 01:19:34;;;;;;;3.50;3.00;;;;;;;13.30;71.38;100960.25;106896;1268;25511;-55
2023/04/22 01:22:02;;;;;;;4.70;2.90;;;;;;;13.29;71.21;100958.37;106848;1269;25380;-55
2023/04/22 01:24:32;;;;;;;3.60;2.60;;;;;;;13.28;71.14;100963.96;106797;1271;25371;-55
2023/04/22 01:27:00;;;;;;;5.80;3.00;;;;;;;13.27;70.99;100963.48;106826;1276;25233;-55
2023/04/22 01:29:29;;;;;;;4.90;2.40;;;;;;;13.26;71.07;100963.51;106879;1268;24429;-54
2023/04/22 01:31:57;;;;;;;7.10;3.30;;;;;;;13.25;70.91;100965.09;106894;1270;25355;-54
2023/04/22 01:34:29;;;;;;;5.90;3.00;;;;;;;13.26;70.85;100965.24;106928;1268;26505;-55
2023/04/22 01:36:57;;;;;;;5.40;2.90;;;;;;;13.26;70.80;100973.10;106885;1268;23641;-55
2023/04/22 01:39:26;;;;;;;6.60;3.00;;;;;;;13.26;70.96;100973.45;106837;1269;22547;-55
2023/04/22 01:41:55;;;;;;;5.40;3.10;;;;;;;13.27;70.67;100973.92;106797;1269;25325;-55
2023/04/22 01:44:24;;;;;;;4.60;3.00;;;;;;;13.26;70.65;100976.57;106753;1269;22646;-56
2023/04/22 01:46:52;;;;;;;3.90;2.80;;;;;;;13.26;70.62;100973.61;106836;1268;25813;-55
2023/04/22 01:49:21;;;;;;;5.10;3.20;;;;;;;13.24;70.62;100975.05;106859;1268;25374;-55
2023/04/22 01:51:50;;;;;;;8.00;3.30;;;;;;;13.26;70.59;100977.27;106864;1269;25387;-55
2023/04/22 01:54:20;;;;;;;6.60;3.20;;;;;;;13.26;70.55;100977.10;106859;1268;25370;-55
2023/04/22 01:56:52;;;;;;;6.50;3.70;;;;;;;13.25;70.41;100974.15;106878;1268;24747;-55
2023/04/22 01:59:20;;;;;;;4.90;3.50;;;;;;;13.26;70.46;100973.27;106755;1268;22611;-55
2023/04/22 02:01:50;;;;;;;5.50;3.40;;;;;;;13.25;70.18;100974.33;106908;1268;24216;-55
2023/04/22 02:04:18;;;;;;;9.10;3.70;;;;;;;13.24;70.06;100977.85;106794;1268;25292;-55
2023/04/22 02:06:47;;;;;;;3.80;2.90;;;;;;;13.24;70.11;100983.60;106833;1270;25236;-55
2023/04/22 02:09:16;;;;;;;5.40;3.10;;;;;;;13.26;70.09;100985.78;106779;1268;22524;-55
2023/04/22 02:11:45;;;;;;;6.90;3.50;;;;;;;13.28;69.82;100985.73;106836;1269;25467;-55
2023/04/22 02:14:13;;;;;;;4.60;3.20;;;;;;;13.28;69.67;100988.35;106953;1269;22601;-55
2023/04/22 02:16:42;;;;;;;4.80;2.90;;;;;;;13.27;69.47;100988.21;106874;1273;25340;-55
2023/04/22 02:19:10;;;;;;;6.60;3.40;;;;;;;13.26;69.46;100989.61;106928;1269;25355;-55
2023/04/22 02:21:39;;;;;;;4.80;3.30;;;;;;;13.27;69.35;100991.33;106912;1269;25562;-55
2023/04/22 02:24:08;;;;;;;7.80;3.20;;;;;;;13.27;69.12;100995.70;106845;1269;25342;-56
2023/04/22 02:26:36;;;;;;;3.80;3.10;;;;;;;13.26;68.85;100995.90;106846;1268;28112;-55
2023/04/22 02:29:05;;;;;;;8.10;3.30;;;;;;;13.24;68.75;100998.58;106874;1269;24342;-56
2023/04/22 02:31:33;;;;;;;5.60;3.20;;;;;;;13.23;68.73;100997.92;106781;1268;22526;-55
2023/04/22 02:34:02;;;;;;;3.30;2.90;;;;;;;13.22;68.60;101002.31;106853;1270;24354;-55
2023/04/22 02:36:33;;;;;;;6.40;3.10;;;;;;;13.20;68.72;101004.27;106944;1257;25380;-55
2023/04/22 02:39:03;;;;;;;5.80;3.20;;;;;;;13.21;68.67;101008.75;106806;1269;25345;-55
2023/04/22 02:41:31;;;;;;;5.00;3.30;;;;;;;13.22;68.40;101008.75;106828;1271;25353;-55
2023/04/22 02:44:00;;;;;;;5.00;2.80;;;;;;;13.19;68.28;101004.99;106808;1268;25352;-55
2023/04/22 02:46:29;;;;;;;5.20;3.20;;;;;;;13.18;68.22;101013.23;106919;1268;25334;-55
2023/04/22 02:48:58;;;;;;;5.00;3.20;;;;;;;13.17;68.26;101012.38;106932;1268;24240;-55
2023/04/22 02:51:27;;;;;;;5.00;2.90;;;;;;;13.17;68.35;101014.62;106889;1268;25339;-55
2023/04/22 02:53:55;;;;;;;2.80;2.60;;;;;;;13.18;68.21;101016.34;106853;1269;25358;-55
2023/04/22 02:56:25;;;;;;;3.60;2.80;;;;;;;13.18;68.20;101017.02;106744;1270;25473;-55
2023/04/22 02:58:54;;;;;;;5.00;2.80;;;;;;;13.19;68.26;101020.33;106891;1270;26515;-55
2023/04/22 03:01:22;;;;;;;6.00;2.70;;;;;;;13.18;68.28;101019.66;106783;1268;26647;-55
2023/04/22 03:03:51;;;;;;;2.40;2.20;;;;;;;13.19;68.41;101015.64;106866;1271;22531;-55
2023/04/22 03:06:22;;;;;;;7.80;3.80;;;;;;;13.18;68.12;101021.04;106900;1268;25236;-55
2023/04/22 03:08:51;;;;;;;4.30;2.70;;;;;;;13.16;68.19;101021.45;106847;1268;25355;-55
2023/04/22 03:11:19;;;;;;;5.70;3.30;;;;;;;13.16;68.19;101030.52;106858;1268;25391;-55
2023/04/22 03:13:48;;;;;;;5.30;2.50;;;;;;;13.17;68.15;101037.30;106877;1269;25419;-55
2023/04/22 03:16:17;;;;;;;4.10;2.50;;;;;;;13.18;68.07;101035.33;106908;1268;22789;-55
2023/04/22 03:18:45;;;;;;;4.40;2.40;;;;;;;13.18;67.98;101037.59;106776;1274;25345;-56
2023/04/22 03:21:14;;;;;;;4.70;2.30;;;;;;;13.15;68.09;101039.08;106721;1274;25363;-55
2023/04/22 03:23:43;;;;;;;7.20;2.90;;;;;;;13.13;68.25;101043.32;106715;1272;25377;-55
2023/04/22 03:26:12;;;;;;;5.10;2.70;;;;;;;13.09;68.32;101043.23;106802;1270;24285;-55
2023/04/22 03:28:41;;;;;;;4.70;2.30;;;;;;;13.08;68.40;101045.70;106836;1271;22598;-55
2023/04/22 03:31:09;;;;;;;5.70;2.20;;;;;;;13.10;68.38;101049.50;106784;1271;25477;-55
2023/04/22 03:33:38;;;;;;;6.00;2.90;;;;;;;13.11;68.27;101051.04;106802;1270;22538;-55
2023/04/22 03:36:13;;;;;;;5.10;2.70;;;;;;;13.10;68.17;101055.58;106772;1270;23866;-55
2023/04/22 03:38:41;;;;;;;6.30;3.00;;;;;;;13.11;68.29;101061.83;106740;1270;25564;-55
2023/04/22 03:41:10;;;;;;;6.80;2.50;;;;;;;13.13;68.23;101063.02;106383;1271;25331;-55
2023/04/22 03:43:41;;;;;;;3.80;2.40;;;;;;;13.16;68.05;101069.54;106871;1270;23190;-55
2023/04/22 03:46:10;;;;;;;5.40;2.60;;;;;;;13.15;67.68;101075.66;106734;1270;25364;-55
2023/04/22 03:48:42;;;;;;;;;;;;;;;13.11;67.68;101078.02;106780;1270;25368;-55
2023/04/22 03:51:14;;;;;;;5.50;2.20;;;;;;;13.02;67.94;101086.08;106358;1278;22558;-55
2023/04/22 03:53:43;;;;;;;5.90;2.60;;;;;;;13.09;67.79;101089.91;106735;1269;22514;-55
2023/04/22 03:56:15;;;;;;;4.80;3.10;;;;;;;13.09;67.63;101093.91;106966;1268;25363;-55
2023/04/22 03:58:45;;;;;;;4.70;2.70;;;;;;;13.08;67.78;101100.89;106859;1268;25362;-55
2023/04/22 04:01:14;;;;;;;3.60;2.30;;;;;;;13.09;67.70;101101.58;106835;1268;25331;-55
2023/04/22 04:03:45;;;;;;;4.60;3.20;;;;;;;13.08;67.68;101102.45;106869;1268;22524;-55
2023/04/22 04:06:14;;;;;;;6.30;3.10;;;;;;;13.13;67.55;101103.42;106828;1268;25342;-55
2023/04/22 04:08:43;;;;;;;4.70;2.60;;;;;;;13.11;67.65;101105.55;106824;1269;23868;-55
2023/04/22 04:11:11;;;;;;;5.60;2.50;;;;;;;13.14;67.61;101111.55;106740;1270;22522;-55
2023/04/22 04:13:39;;;;;;;4.40;2.20;;;;;;;13.15;67.39;101115.72;106864;1268;24244;-55
2023/04/22 04:16:32;;;;;;;3.80;2.40;;;;;;;13.15;67.11;101123.05;106816;1271;25370;-54
2023/04/22 04:19:07;;;;;;;4.30;2.20;;;;;;;13.21;66.86;101124.11;106172;1268;1003653;-55
2023/04/22 04:21:38;;;;;;;5.50;2.40;;;;;;;13.23;66.72;101126.30;106692;1274;25414;-55
2023/04/22 04:24:06;;;;;;;6.00;2.40;;;;;;;13.25;66.68;101123.13;106850;1271;22516;-55
2023/04/22 04:26:39;;;;;;;8.00;2.20;;;;;;;13.26;66.71;101126.39;106779;1268;25380;-54
2023/04/22 04:29:12;;;;;;;7.40;2.60;;;;;;;13.28;66.52;101126.84;106818;1268;22642;-54
2023/04/22 04:31:43;;;;;;;6.80;2.40;;;;;;;13.26;66.08;101131.10;106829;1268;22646;-55
2023/04/22 04:34:12;;;;;;;5.90;2.70;;;;;;;13.23;66.08;101133.80;106862;1268;22744;-55
2023/04/22 04:36:40;;;;;;;4.80;2.50;;;;;;;13.20;66.18;101135.95;106836;1268;23310;-55
2023/04/22 04:39:32;;;;;;;4.50;3.00;;;;;;;13.19;66.12;101141.91;106791;1268;25523;-54
2023/04/22 04:42:02;;;;;;;5.00;2.40;;;;;;;13.15;66.04;101143.59;106938;1268;23319;-55
2023/04/22 04:44:33;;;;;;;5.80;2.30;;;;;;;13.06;66.35;101145.02;106781;1268;25370;-55
2023/04/22 04:47:02;;;;;;;2.80;2.00;;;;;;;13.01;66.69;101148.28;106734;1268;25370;-56
2023/04/22 04:49:31;;;;;;;4.50;2.60;;;;;;;12.99;66.90;101151.27;106802;1269;25334;-54
2023/04/22 04:52:00;;;;;;;5.00;2.60;;;;;;;13.03;66.85;101150.81;106959;1268;25350;-54
2023/04/22 04:54:29;;;;;;;5.60;2.60;;;;;;;13.11;66.55;101151.52;106824;1271;22533;-55
2023/04/22 04:57:00;;;;;;;6.50;1.90;;;;;;;13.15;66.62;101158.41;106815;1268;25444;-55
2023/04/22 04:59:29;;;;;;;5.20;2.50;;;;;;;13.17;66.48;101160.25;106817;1268;24414;-55
2023/04/22 05:01:58;;;;;;;8.00;3.10;;;;;;;13.18;66.19;101160.07;106684;1271;25367;-55
2023/04/22 05:04:29;;;;;;;5.40;2.50;;;;;;;13.16;66.10;101160.27;106848;1269;25380;-55
2023/04/22 05:06:58;;;;;;;6.10;2.20;;;;;;;13.16;66.10;101159.93;106832;1268;25377;-55
2023/04/22 05:09:26;;;;;;;7.50;2.40;;;;;;;13.17;66.00;101162.88;106916;1268;22596;-55
2023/04/22 05:11:55;;;;;;;4.10;2.10;;;;;;;13.18;66.09;101165.99;106638;1268;242675;-55
2023/04/22 05:14:25;;;;;;;7.00;2.50;;;;;;;13.20;65.90;101166.30;106761;1268;24321;-55
2023/04/22 05:16:53;;;;;;;6.30;2.00;;;;;;;13.20;65.95;101165.23;106742;1269;25605;-55
2023/04/22 05:19:22;;;;;;;5.30;2.60;;;;;;;13.21;65.85;101172.35;106787;1273;24222;-55
2023/04/22 05:21:51;;;;;;;4.40;2.50;;;;;;;13.23;65.90;101172.48;106772;1269;25523;-55
2023/04/22 05:24:20;;;;;;;6.00;2.20;;;;;;;13.26;65.73;101175.87;106888;1268;25346;-55
2023/04/22 05:26:49;;;;;;;4.50;2.10;;;;;;;13.33;65.74;101180.92;106889;1268;25331;-54
2023/04/22 05:29:19;;;;;;;4.30;2.10;;;;;;;13.38;65.26;101181.48;106791;1268;22761;-55
2023/04/22 05:31:47;;;;;;;2.80;2.20;;;;;;;13.41;65.19;101185.58;106931;1268;25535;-54
2023/04/22 05:34:16;;;;;;;5.20;2.20;;;;;;;13.46;65.12;101187.70;106792;1272;25331;-54
2023/04/22 05:36:45;;;;;;;6.70;2.20;;;;;;;13.51;64.71;101190.00;106805;1272;23865;-54
2023/04/22 05:39:14;;;;;;;5.40;2.10;;;;;;;13.55;64.91;101192.52;106837;1268;25361;-54
2023/04/22 05:41:43;;;;;;;7.30;1.90;;;;;;;13.60;64.81;101198.13;106879;1268;23758;-54
2023/04/22 05:44:14;;;;;;;4.40;2.00;;;;;;;13.62;64.41;101203.33;106891;1268;22523;-54
2023/04/22 05:46:43;;;;;;;2.90;1.90;;;;;;;13.64;64.62;101210.40;106946;1268;24261;-55
2023/04/22 05:49:11;;;;;;;4.10;2.10;;;;;;;13.63;65.00;101214.45;106810;1268;26701;-55
2023/04/22 05:51:58;;;;;;;3.20;1.90;;;;;;;13.68;64.91;101219.02;106737;1265;25360;-54
2023/04/22 05:54:31;;;;;;;8.20;2.20;;;;;;;13.82;64.18;101224.73;106687;1269;25386;-54
2023/04/22 05:57:01;;;;;;;4.90;2.40;;;;;;;13.80;63.94;101229.31;106765;1273;25482;-54
2023/04/22 05:59:30;;;;;;;5.70;2.20;;;;;;;13.88;63.92;101232.55;106782;1273;22642;-54
2023/04/22 06:01:58;;;;;;;4.20;2.40;;;;;;;13.96;63.75;101235.13;106732;1272;25480;-54
2023/04/22 06:04:27;;;;;;;4.00;2.10;;;;;;;14.04;63.37;101237.02;106829;1269;25552;-54
2023/04/22 06:06:56;;;;;;;5.00;2.40;;;;;;;14.10;63.54;101238.58;106853;1268;25478;-54
2023/04/22 06:09:24;;;;;;;4.70;1.90;;;;;;;14.18;63.25;101238.53;106791;1271;24359;-54
2023/04/22 06:11:53;;;;;;;6.10;2.50;;;;;;;14.29;63.44;101244.31;106924;1268;22686;-54
2023/04/22 06:14:22;;;;;;;6.70;2.10;;;;;;;14.49;63.09;101238.86;105933;1268;1003757;-54
2023/04/22 06:16:51;;;;;;;7.50;2.40;;;;;;;14.78;62.68;101240.21;106629;1268;22517;-54
2023/04/22 06:19:20;;;;;;;7.90;2.40;;;;;;;15.18;61.87;101238.92;106696;1269;25374;-54
2023/04/22 06:21:49;;;;;;;5.60;2.10;;;;;;;15.64;60.61;101238.24;106828;1269;25435;-54
2023/04/22 06:24:17;;;;;;;6.40;2.40;;;;;;;15.97;58.66;101242.32;106488;1269;25359;-54
2023/04/22 06:26:46;;;;;;;4.90;1.90;;;;;;;16.04;57.60;101242.23;106807;1273;25422;-54
2023/04/22 06:29:14;;;;;;;4.70;2.40;;;;;;;16.04;57.34;101245.18;106765;1269;25373;-54
2023/04/22 06:31:43;;;;;;;3.80;2.00;;;;;;;16.10;57.19;101246.56;106779;1268;25409;-54
2023/04/22 06:34:11;;;;;;;6.30;2.40;;;;;;;16.32;57.29;101249.94;106820;1269;25357;-54
2023/04/22 06:36:40;;;;;;;6.90;2.20;;;;;;;16.62;57.06;101250.21;106926;1268;25348;-54
2023/04/22 06:39:10;;;;;;;7.10;2.20;;;;;;;16.93;56.80;101250.19;106907;1268;22535;-53
2023/04/22 06:42:07;;;;;;;7.60;2.10;;;;;;;17.23;56.11;101248.28;106621;1273;24281;-54
2023/04/22 06:45:03;;;;;;;6.90;2.30;;;;;;;17.45;55.15;101248.02;106672;1268;24350;-54
2023/04/22 06:47:55;;;;;;;6.00;2.10;;;;;;;17.55;54.73;101244.66;106829;1269;25374;-54
2023/04/22 06:50:30;;;;;;;7.10;2.40;;;;;;;17.60;54.34;101246.35;106833;1272;25370;-53
2023/04/22 06:52:59;;;;;;;5.20;2.30;;;;;;;17.68;53.61;101250.91;106844;1268;25332;-54
2023/04/22 06:55:27;;;;;;;7.40;2.30;;;;;;;17.78;53.02;101247.86;106845;1268;27035;-53
2023/04/22 06:57:56;;;;;;;6.70;2.30;;;;;;;17.91;52.70;101256.60;106876;1268;25364;-54
2023/04/22 07:00:25;;;;;;;4.30;2.10;;;;;;;18.09;52.27;101260.36;106823;1271;25370;-54
2023/04/22 07:02:53;;;;;;;9.50;2.00;;;;;;;18.29;51.96;101268.92;106830;1271;25331;-54
2023/04/22 07:05:22;;;;;;;5.00;2.10;;;;;;;18.50;51.20;101272.91;106827;1268;22539;-54
2023/04/22 07:07:51;;;;;;;7.60;2.00;;;;;;;18.63;50.09;101279.12;106862;1269;24220;-54
2023/04/22 07:10:21;;;;;;;9.10;2.00;;;;;;;18.66;49.61;101281.27;106795;1270;22587;-54
2023/04/22 07:13:12;;;;;;;4.50;1.90;;;;;;;18.64;49.14;101279.27;106706;1270;25373;-54
2023/04/22 07:15:41;;;;;;;8.70;2.40;;;;;;;18.65;49.27;101284.14;106684;1270;23320;-54
2023/04/22 07:18:09;;;;;;;7.80;2.10;;;;;;;18.67;48.91;101284.02;106400;1274;22551;-53
2023/04/22 07:20:38;;;;;;;3.60;1.90;;;;;;;18.59;48.97;101289.69;106435;1270;22640;-54
2023/04/22 07:23:06;;;;;;;5.70;2.10;;;;;;;18.57;49.34;101290.33;106420;1271;25428;-53
2023/04/22 07:25:35;;;;;;;4.70;2.30;;;;;;;18.56;49.66;101289.12;106518;1271;25406;-53
2023/04/22 07:28:03;;;;;;;7.20;2.20;;;;;;;18.55;49.87;101294.09;106562;1270;25349;-53
2023/04/22 07:30:32;;;;;;;8.50;2.40;;;;;;;18.55;49.75;101302.88;106636;1273;25392;-53
2023/04/22 07:33:01;;;;;;;8.10;2.70;;;;;;;18.50;49.85;101306.27;106488;1277;22544;-53
2023/04/22 07:35:30;;;;;;;3.90;1.90;;;;;;;18.46;50.42;101311.36;106747;1269;25341;-53
2023/04/22 07:37:59;;;;;;;5.50;2.30;;;;;;;18.43;50.48;101308.86;106101;1263;1003741;-53
2023/04/22 07:40:27;;;;;;;5.70;2.30;;;;;;;18.37;50.34;101315.28;106913;1269;22536;-54
2023/04/22 07:42:56;;;;;;;5.00;2.10;;;;;;;18.26;50.03;101317.90;106842;1269;24282;-54
2023/04/22 07:45:24;;;;;;;6.50;2.20;;;;;;;18.11;50.30;101315.95;106768;1275;25413;-53
2023/04/22 07:47:52;;;;;;;6.80;2.10;;;;;;;17.97;50.66;101316.91;106828;1268;22521;-54
2023/04/22 07:50:21;;;;;;;7.70;2.70;;;;;;;17.84;51.07;101317.27;106853;1268;24249;-53
2023/04/22 07:52:50;;;;;;;9.00;2.80;;;;;;;17.77;51.20;101315.98;106886;1268;25429;-53
2023/04/22 07:55:18;;;;;;;4.10;2.00;;;;;;;17.70;51.69;101318.76;106916;1268;25355;-53
2023/04/22 07:57:46;;;;;;;9.20;2.20;;;;;;;17.64;52.25;101323.41;106860;1268;25373;-54
2023/04/22 08:00:15;;;;;;;5.10;2.40;;;;;;;17.63;51.98;101323.24;106805;1274;22514;-54
2023/04/22 08:02:45;;;;;;;9.50;2.90;;;;;;;17.62;51.92;101327.69;106856;1268;22546;-54
2023/04/22 08:05:14;;;;;;;7.30;2.60;;;;;;;17.62;51.85;101329.08;106775;1274;22528;-54
2023/04/22 08:07:43;;;;;;;7.20;2.20;;;;;;;17.61;51.62;101332.63;106935;1272;25346;-54
2023/04/22 08:13:35;;;;;;;6.40;2.20;;;;;;;17.66;51.65;101333.11;103715;1297;545553;-53
2023/04/22 08:16:06;;;;;;;8.20;2.40;;;;;;;17.65;51.51;101329.15;106699;1273;22987;-53
2023/04/22 08:18:34;;;;;;;6.10;2.60;;;;;;;17.67;51.68;101336.95;106447;1278;22791;-52
2023/04/22 08:21:03;;;;;;;7.40;2.10;;;;;;;17.67;51.40;101338.88;106181;1280;22647;-53
2023/04/22 08:23:31;;;;;;;6.90;2.00;;;;;;;17.65;51.52;101338.79;106398;1277;25503;-53
2023/04/22 08:26:00;;;;;;;6.50;2.10;;;;;;;17.63;51.44;101340.42;106574;1275;25367;-53
2023/04/22 08:28:29;;;;;;;4.50;2.00;;;;;;;17.56;51.90;101340.05;107042;1264;23272;-53
2023/04/22 08:30:58;;;;;;;4.30;2.00;;;;;;;17.68;51.62;101339.19;106964;1256;25349;-53
2023/04/22 08:33:27;;;;;;;5.40;2.20;;;;;;;17.76;51.28;101336.40;106971;1271;22545;-53
2023/04/22 08:36:15;;;;;;;5.70;2.30;;;;;;;17.77;51.13;101339.12;106825;1271;25379;-54
2023/04/22 08:38:43;;;;;;;9.20;2.40;;;;;;;17.76;50.78;101341.09;106424;1275;22542;-54
2023/04/22 08:41:12;;;;;;;4.20;1.90;;;;;;;17.74;50.81;101343.49;105237;1275;1003070;-54
2023/04/22 08:43:41;;;;;;;6.10;2.40;;;;;;;17.73;50.88;101346.86;106431;1262;22552;-54
2023/04/22 08:46:10;;;;;;;8.40;2.10;;;;;;;17.73;50.56;101348.10;106591;1274;25353;-54
2023/04/22 08:48:39;;;;;;;3.80;1.70;;;;;;;17.76;51.11;101349.90;106506;1267;25375;-55
2023/04/22 08:51:07;;;;;;;5.00;2.30;;;;;;;17.79;51.26;101349.58;107151;1259;22620;-55
2023/04/22 08:53:36;;;;;;;7.40;2.40;;;;;;;17.84;50.97;101351.67;106995;1268;22884;-54
2023/04/22 08:56:05;;;;;;;5.70;2.00;;;;;;;17.86;50.63;101351.58;107164;1274;22542;-54
2023/04/22 08:58:33;;;;;;;7.20;2.60;;;;;;;17.82;50.23;101355.24;106478;1274;22540;-54
2023/04/22 09:01:02;;;;;;;5.80;2.50;;;;;;;17.78;51.22;101353.33;106786;1274;25332;-53
2023/04/22 09:03:32;;;;;;;8.70;2.80;;;;;;;17.81;50.85;101349.86;106851;1280;22540;-54
2023/04/22 09:06:02;;;;;;;5.20;2.20;;;;;;;17.84;50.49;101353.05;106644;1268;22529;-54
2023/04/22 09:08:31;;;;;;;4.60;2.10;;;;;;;17.88;50.30;101352.73;106371;1274;22536;-54
2023/04/22 09:10:59;;;;;;;6.20;2.30;;;;;;;17.91;50.35;101351.39;106635;1271;25265;-54
2023/04/22 09:13:30;;;;;;;6.20;3.00;;;;;;;17.91;50.04;101351.55;106646;1275;25362;-54
2023/04/22 09:15:59;;;;;;;5.10;2.20;;;;;;;17.89;49.94;101350.91;106587;1276;25320;-54
2023/04/22 09:18:28;;;;;;;6.70;2.60;;;;;;;17.87;49.10;101348.73;106685;1272;22541;-54
2023/04/22 09:20:57;;;;;;;8.60;2.80;;;;;;;17.80;49.04;101346.73;106819;1272;23032;-53
2023/04/22 09:23:25;;;;;;;7.10;2.50;;;;;;;17.78;49.80;101345.79;106734;1271;25460;-53
2023/04/22 09:25:56;;;;;;;9.20;2.40;;;;;;;17.78;49.17;101343.12;106992;1265;22754;-53
2023/04/22 09:28:24;;;;;;;6.40;2.60;;;;;;;17.79;49.20;101345.89;106482;1272;25441;-53
2023/04/22 09:30:53;;;;;;;7.40;2.50;;;;;;;17.82;49.22;101343.52;107023;1263;25300;-54
2023/04/22 09:33:21;;;;;;;7.40;2.60;;;;;;;17.83;48.89;101341.87;107148;1267;25367;-54
2023/04/22 09:35:50;;;;;;;6.00;2.60;;;;;;;17.84;48.77;101340.98;107055;1257;24214;-53
2023/04/22 09:38:19;;;;;;;6.60;2.30;;;;;;;17.89;48.47;101339.88;107057;1265;25469;-54
2023/04/22 09:40:47;;;;;;;7.10;2.60;;;;;;;17.94;48.78;101338.29;106755;1271;24296;-54
2023/04/22 09:43:17;;;;;;;10.50;2.50;;;;;;;17.99;48.61;101335.92;107161;1271;25352;-53
2023/04/22 09:45:45;;;;;;;8.40;2.80;;;;;;;18.03;48.19;101338.23;107014;1265;24202;-53
2023/04/22 09:48:16;;;;;;;5.30;2.30;;;;;;;18.05;48.34;101335.13;106761;1274;25447;-54
2023/04/22 09:50:46;;;;;;;4.50;2.40;;;;;;;18.07;48.22;101337.52;106884;1265;25526;-54
2023/04/22 09:53:17;;;;;;;7.10;2.30;;;;;;;18.09;48.58;101337.63;107312;1262;22572;-54
2023/04/22 09:55:47;;;;;;;7.90;2.80;;;;;;;18.13;48.34;101337.96;106807;1262;24233;-54
2023/04/22 09:58:17;;;;;;;5.00;2.30;;;;;;;18.15;48.11;101337.51;107259;1264;24250;-54
2023/04/22 10:00:53;;;;;;;10.50;2.80;;;;;;;18.16;47.98;101337.83;106478;1261;24261;-54
2023/04/22 10:03:22;;;;;;;8.30;2.80;;;;;;;18.15;48.10;101337.33;107214;1259;22744;-53
2023/04/22 10:05:51;;;;;;;8.40;3.40;;;;;;;18.17;48.50;101335.84;106749;1272;25345;-54
2023/04/22 10:08:19;;;;;;;8.60;3.30;;;;;;;18.20;48.44;101337.63;107075;1263;24232;-53
2023/04/22 10:10:48;;;;;;;5.80;2.60;;;;;;;18.26;47.79;101334.22;106886;1272;25345;-53
2023/04/22 10:13:16;;;;;;;6.30;2.90;;;;;;;18.33;47.61;101330.41;106446;1276;25348;-53
2023/04/22 10:15:51;;;;;;;8.60;2.70;;;;;;;18.39;47.33;101328.17;106749;1267;23563;-54
2023/04/22 10:18:26;;;;;;;6.40;2.90;;;;;;;18.45;46.97;101328.46;106949;1264;25454;-54
2023/04/22 10:20:55;;;;;;;5.70;2.80;;;;;;;18.50;46.91;101331.56;106757;1268;22770;-55
2023/04/22 10:23:24;;;;;;;5.90;2.50;;;;;;;18.57;46.73;101330.91;106842;1266;22550;-54
2023/04/22 10:25:53;;;;;;;8.40;2.80;;;;;;;18.63;46.46;101328.50;106881;1265;25447;-53
2023/04/22 10:28:22;;;;;;;5.80;2.50;;;;;;;18.71;46.51;101324.61;106752;1264;22644;-54
2023/04/22 10:30:52;;;;;;;5.90;2.80;;;;;;;18.81;45.82;101321.19;107145;1259;24289;-54
2023/04/22 10:33:22;;;;;;;6.20;2.60;;;;;;;18.90;46.26;101321.77;106046;1261;1003393;-54
2023/04/22 10:36:09;;;;;;;6.30;2.50;;;;;;;18.99;46.16;101316.79;107224;1265;22627;-54
2023/04/22 10:38:40;;;;;;;7.80;2.90;;;;;;;19.07;46.13;101321.30;107076;1263;25082;-54
2023/04/22 10:41:14;;;;;;;6.60;2.90;;;;;;;19.15;45.94;101316.00;107118;1272;25373;-54
2023/04/22 10:43:44;;;;;;;7.30;3.00;;;;;;;19.22;45.89;101315.15;106301;1262;1003834;-54
2023/04/22 10:46:33;;;;;;;7.60;2.60;;;;;;;19.28;45.80;101311.34;106552;1262;23578;-54
2023/04/22 10:49:09;;;;;;;10.30;4.30;;;;;;;19.34;45.44;101310.69;107339;1264;22576;-54
2023/04/22 10:51:45;;;;;;;4.20;2.50;;;;;;;19.39;45.68;101315.04;107022;1263;22573;-54
2023/04/22 10:54:27;;;;;;;6.30;3.20;;;;;;;19.45;45.42;101310.69;106889;1264;22889;-54
2023/04/22 10:57:07;;;;;;;8.60;3.20;;;;;;;19.52;45.57;101312.29;106407;1271;25581;-54
2023/04/22 10:59:45;;;;;;;4.30;3.00;;;;;;;19.56;44.99;101311.92;106562;1266;24410;-54
2023/04/22 11:02:14;;;;;;;4.50;2.60;;;;;;;19.61;44.33;101311.16;107127;1264;22519;-54
2023/04/22 11:04:42;;;;;;;9.00;3.30;;;;;;;19.65;44.13;101310.92;106840;1272;22535;-54
2023/04/22 11:07:16;;;;;;;10.70;3.30;;;;;;;19.70;43.56;101308.55;107317;1259;25486;-53
2023/04/22 11:09:45;;;;;;;5.60;3.00;;;;;;;19.75;43.32;101308.46;107017;1271;22747;-53
2023/04/22 11:12:38;;;;;;;8.60;3.20;;;;;;;19.80;44.08;101302.05;107204;1272;22653;-53
2023/04/22 11:15:11;;;;;;;5.20;2.90;;;;;;;19.89;44.74;101303.52;106912;1272;25462;-52
2023/04/22 11:17:44;;;;;;;8.40;3.30;;;;;;;19.98;43.86;101304.48;107261;1272;22594;-52
2023/04/22 11:20:16;;;;;;;6.40;3.50;;;;;;;20.07;43.42;101307.15;106743;1273;22535;-52
2023/04/22 11:22:49;;;;;;;5.50;3.00;;;;;;;20.14;43.01;101313.82;106739;1274;25300;-53
2023/04/22 11:25:17;;;;;;;10.00;3.60;;;;;;;20.20;43.53;101311.59;106729;1274;22526;-53
2023/04/22 11:27:46;;;;;;;5.50;3.20;;;;;;;20.26;44.11;101312.83;106497;1275;25351;-53
2023/04/22 11:30:17;;;;;;;10.60;4.10;;;;;;;20.33;43.79;101317.42;106434;1277;24354;-53
2023/04/22 11:32:48;;;;;;;5.80;3.20;;;;;;;20.38;43.76;101310.11;106548;1275;22613;-53